sensor_id;sensor_type;location;lat;lon;timestamp;temperature;humidity
16974;DHT22;8603;46.944;7.412;2024-03-23T08:40:27;10.30;99.90
16974;DHT22;8603;46.944;7.412;2024-03-23T08:42:53;10.50;99.90
16974;DHT22;8603;46.944;7.412;2024-03-23T08:45:40;10.30;99.90
16974;DHT22;8603;46.944;7.412;2024-03-23T08:48:11;10.10;99.90
16974;DHT22;8603;46.944;7.412;2024-03-23T08:50:44;10.00;99.90
16974;DHT22;8603;46.944;7.412;2024-03-23T08:56:15;9.90;99.90
16974;DHT22;8603;46.944;7.412;2024-03-23T08:58:47;9.90;99.90
16974;DHT22;8603;46.944;7.412;2024-03-23T09:04:36;9.90;99.90
16974;DHT22;8603;46.944;7.412;2024-03-23T09:07:05;9.80;99.90
16974;DHT22;8603;46.944;7.412;2024-03-23T09:09:40;9.70;99.90
16974;DHT22;8603;46.944;7.412;2024-03-23T09:12:13;9.70;99.90
16974;DHT22;8603;46.944;7.412;2024-03-23T09:14:40;9.80;99.90
16974;DHT22;8603;46.944;7.412;2024-03-23T09:17:28;9.80;99.90
16974;DHT22;8603;46.944;7.412;2024-03-23T09:25:28;10.50;99.90
16974;DHT22;8603;46.944;7.412;2024-03-23T09:28:02;10.70;99.90
16974;DHT22;8603;46.944;7.412;2024-03-23T09:30:35;10.80;99.90
16974;DHT22;8603;46.944;7.412;2024-03-23T09:33:11;11.10;99.90
16974;DHT22;8603;46.944;7.412;2024-03-23T09:35:43;11.20;99.90
16974;DHT22;8603;46.944;7.412;2024-03-23T09:38:27;11.40;99.90
16974;DHT22;8603;46.944;7.412;2024-03-23T09:40:59;11.50;99.90
16974;DHT22;8603;46.944;7.412;2024-03-23T09:43:35;11.50;99.90
16974;DHT22;8603;46.944;7.412;2024-03-23T09:46:10;11.50;99.90
16974;DHT22;8603;46.944;7.412;2024-03-23T09:48:43;11.30;99.90
16974;DHT22;8603;46.944;7.412;2024-03-23T09:51:24;11.10;99.90
16974;DHT22;8603;46.944;7.412;2024-03-23T09:53:59;11.20;99.90
16974;DHT22;8603;46.944;7.412;2024-03-23T09:56:36;11.50;99.90
16974;DHT22;8603;46.944;7.412;2024-03-23T10:02:41;11.60;99.90
16974;DHT22;8603;46.944;7.412;2024-03-23T10:06:13;11.70;99.90
16974;DHT22;8603;46.944;7.412;2024-03-23T10:08:32;12.30;99.90
16974;DHT22;8603;46.944;7.412;2024-03-23T10:14:31;12.40;99.90
16974;DHT22;8603;46.944;7.412;2024-03-23T10:17:17;12.20;99.90
16974;DHT22;8603;46.944;7.412;2024-03-23T10:19:53;12.20;99.90
16974;DHT22;8603;46.944;7.412;2024-03-23T10:25:28;11.90;99.90
16974;DHT22;8603;46.944;7.412;2024-03-23T10:28:10;11.90;99.90
16974;DHT22;8603;46.944;7.412;2024-03-23T10:30:49;11.80;99.90
16974;DHT22;8603;46.944;7.412;2024-03-23T10:33:26;11.50;99.90
16974;DHT22;8603;46.944;7.412;2024-03-23T10:36:12;11.40;99.90
16974;DHT22;8603;46.944;7.412;2024-03-23T10:41:34;11.20;99.90
16974;DHT22;8603;46.944;7.412;2024-03-23T10:46:53;10.90;99.90
16974;DHT22;8603;46.944;7.412;2024-03-23T10:49:25;10.50;99.90
16974;DHT22;8603;46.944;7.412;2024-03-23T10:52:09;10.50;99.90
16974;DHT22;8603;46.944;7.412;2024-03-23T10:54:40;10.50;99.90
16974;DHT22;8603;46.944;7.412;2024-03-23T10:57:19;10.80;99.90
16974;DHT22;8603;46.944;7.412;2024-03-23T11:03:36;11.20;99.90
16974;DHT22;8603;46.944;7.412;2024-03-23T11:06:33;11.20;99.90
16974;DHT22;8603;46.944;7.412;2024-03-23T11:08:53;11.40;99.90
16974;DHT22;8603;46.944;7.412;2024-03-23T11:11:28;11.50;99.90
16974;DHT22;8603;46.944;7.412;2024-03-23T11:14:22;11.80;99.90
16974;DHT22;8603;46.944;7.412;2024-03-23T11:17:14;12.00;99.90
16974;DHT22;8603;46.944;7.412;2024-03-23T11:20:12;12.30;99.90
16974;DHT22;8603;46.944;7.412;2024-03-23T11:22:48;12.20;99.90
16974;DHT22;8603;46.944;7.412;2024-03-23T11:28:29;11.80;99.90
16974;DHT22;8603;46.944;7.412;2024-03-23T11:31:12;11.60;99.90
16974;DHT22;8603;46.944;7.412;2024-03-23T11:34:06;11.40;99.90
16974;DHT22;8603;46.944;7.412;2024-03-23T11:36:32;11.40;99.90
16974;DHT22;8603;46.944;7.412;2024-03-23T11:38:58;11.30;99.90
16974;DHT22;8603;46.944;7.412;2024-03-23T11:42:04;11.40;99.90
16974;DHT22;8603;46.944;7.412;2024-03-23T11:44:32;11.60;99.90
16974;DHT22;8603;46.944;7.412;2024-03-23T11:47:11;11.60;99.90
16974;DHT22;8603;46.944;7.412;2024-03-23T11:49:46;11.40;99.90
16974;DHT22;8603;46.944;7.412;2024-03-23T11:52:17;11.60;99.90
16974;DHT22;8603;46.944;7.412;2024-03-23T11:55:21;11.70;99.90
16974;DHT22;8603;46.944;7.412;2024-03-23T11:57:50;12.00;99.90
16974;DHT22;8603;46.944;7.412;2024-03-23T12:00:32;12.20;99.90
16974;DHT22;8603;46.944;7.412;2024-03-23T12:04:13;12.20;99.90
16974;DHT22;8603;46.944;7.412;2024-03-23T12:06:23;12.00;99.90
16974;DHT22;8603;46.944;7.412;2024-03-23T12:09:04;11.90;99.90
16974;DHT22;8603;46.944;7.412;2024-03-23T12:14:32;11.70;96.00
16974;DHT22;8603;46.944;7.412;2024-03-23T12:17:24;11.60;93.90
16974;DHT22;8603;46.944;7.412;2024-03-23T12:20:18;11.40;94.30
16974;DHT22;8603;46.944;7.412;2024-03-23T12:23:08;11.50;94.60
16974;DHT22;8603;46.944;7.412;2024-03-23T12:25:37;11.50;96.00
16974;DHT22;8603;46.944;7.412;2024-03-23T12:28:04;11.40;96.00
16974;DHT22;8603;46.944;7.412;2024-03-23T12:30:51;11.40;95.90
16974;DHT22;8603;46.944;7.412;2024-03-23T12:33:47;11.40;95.50
16974;DHT22;8603;46.944;7.412;2024-03-23T12:36:50;11.40;95.20
16974;DHT22;8603;46.944;7.412;2024-03-23T12:39:28;11.40;93.40
16974;DHT22;8603;46.944;7.412;2024-03-23T12:45:12;11.50;92.90
16974;DHT22;8603;46.944;7.412;2024-03-23T12:47:56;11.50;93.70
16974;DHT22;8603;46.944;7.412;2024-03-23T12:53:48;11.50;95.10
16974;DHT22;8603;46.944;7.412;2024-03-23T12:56:14;11.60;95.90
16974;DHT22;8603;46.944;7.412;2024-03-23T12:59:03;11.70;95.90
16974;DHT22;8603;46.944;7.412;2024-03-23T13:01:28;11.70;96.50
16974;DHT22;8603;46.944;7.412;2024-03-23T13:04:12;11.70;96.80
16974;DHT22;8603;46.944;7.412;2024-03-23T13:07:10;11.70;96.40
16974;DHT22;8603;46.944;7.412;2024-03-23T13:10:09;11.60;97.20
16974;DHT22;8603;46.944;7.412;2024-03-23T13:12:55;11.80;97.30
16974;DHT22;8603;46.944;7.412;2024-03-23T13:15:41;11.80;97.30
16974;DHT22;8603;46.944;7.412;2024-03-23T13:18:16;11.70;96.30
16974;DHT22;8603;46.944;7.412;2024-03-23T13:20:54;11.60;96.30
16974;DHT22;8603;46.944;7.412;2024-03-23T13:23:22;11.60;97.00
16974;DHT22;8603;46.944;7.412;2024-03-23T13:26:07;11.50;98.10
16974;DHT22;8603;46.944;7.412;2024-03-23T13:28:36;11.60;96.60
16974;DHT22;8603;46.944;7.412;2024-03-23T13:31:30;11.60;96.60
16974;DHT22;8603;46.944;7.412;2024-03-23T13:41:14;11.70;96.10
16974;DHT22;8603;46.944;7.412;2024-03-23T13:44:06;11.80;96.80
16974;DHT22;8603;46.944;7.412;2024-03-23T13:50:02;12.10;97.90
16974;DHT22;8603;46.944;7.412;2024-03-23T13:52:33;12.10;97.10
16974;DHT22;8603;46.944;7.412;2024-03-23T13:55:05;12.00;96.40
16974;DHT22;8603;46.944;7.412;2024-03-23T13:57:32;11.80;96.00
16974;DHT22;8603;46.944;7.412;2024-03-23T14:00:15;11.80;96.80
16974;DHT22;8603;46.944;7.412;2024-03-23T14:06:50;11.70;96.00
16974;DHT22;8603;46.944;7.412;2024-03-23T14:09:52;11.70;95.50
16974;DHT22;8603;46.944;7.412;2024-03-23T14:13:07;11.70;95.00
16974;DHT22;8603;46.944;7.412;2024-03-23T14:15:46;11.70;94.10
16974;DHT22;8603;46.944;7.412;2024-03-23T14:21:48;11.60;95.40
16974;DHT22;8603;46.944;7.412;2024-03-23T14:28:28;11.70;94.70
16974;DHT22;8603;46.944;7.412;2024-03-23T14:31:28;11.60;95.00
16974;DHT22;8603;46.944;7.412;2024-03-23T14:37:20;11.60;94.60
16974;DHT22;8603;46.944;7.412;2024-03-23T14:40:17;11.70;93.90
16974;DHT22;8603;46.944;7.412;2024-03-23T14:42:49;11.80;93.70
16974;DHT22;8603;46.944;7.412;2024-03-23T14:45:26;11.70;93.80
16974;DHT22;8603;46.944;7.412;2024-03-23T14:48:16;11.80;93.30
16974;DHT22;8603;46.944;7.412;2024-03-23T14:51:28;11.80;92.20
16974;DHT22;8603;46.944;7.412;2024-03-23T14:54:22;11.70;92.10
16974;DHT22;8603;46.944;7.412;2024-03-23T15:00:22;11.30;93.00
16974;DHT22;8603;46.944;7.412;2024-03-23T15:03:07;11.10;94.00
16974;DHT22;8603;46.944;7.412;2024-03-23T15:08:52;10.90;94.10
16974;DHT22;8603;46.944;7.412;2024-03-23T15:11:34;10.70;94.00
16974;DHT22;8603;46.944;7.412;2024-03-23T15:17:26;10.60;93.60
16974;DHT22;8603;46.944;7.412;2024-03-23T15:19:52;10.40;93.30
16974;DHT22;8603;46.944;7.412;2024-03-23T15:22:45;10.30;94.20
16974;DHT22;8603;46.944;7.412;2024-03-23T15:25:11;10.10;93.80
16974;DHT22;8603;46.944;7.412;2024-03-23T15:27:40;10.10;94.20
16974;DHT22;8603;46.944;7.412;2024-03-23T15:33:19;10.20;94.70
16974;DHT22;8603;46.944;7.412;2024-03-23T15:38:45;10.40;94.10
16974;DHT22;8603;46.944;7.412;2024-03-23T15:42:03;10.20;94.00
16974;DHT22;8603;46.944;7.412;2024-03-23T15:44:58;10.10;93.10
16974;DHT22;8603;46.944;7.412;2024-03-23T15:47:41;9.90;93.10
16974;DHT22;8603;46.944;7.412;2024-03-23T15:50:18;9.80;92.80
16974;DHT22;8603;46.944;7.412;2024-03-23T15:56:55;9.60;93.80
16974;DHT22;8603;46.944;7.412;2024-03-23T16:00:09;9.50;93.80
16974;DHT22;8603;46.944;7.412;2024-03-23T16:02:37;9.50;93.90
16974;DHT22;8603;46.944;7.412;2024-03-23T16:05:41;9.40;93.80
16974;DHT22;8603;46.944;7.412;2024-03-23T16:08:49;9.40;94.10
16974;DHT22;8603;46.944;7.412;2024-03-23T16:11:52;9.50;93.60
16974;DHT22;8603;46.944;7.412;2024-03-23T16:15:02;9.60;93.90
16974;DHT22;8603;46.944;7.412;2024-03-23T16:18:02;9.60;93.20
16974;DHT22;8603;46.944;7.412;2024-03-23T16:20:36;9.50;92.90
16974;DHT22;8603;46.944;7.412;2024-03-23T16:23:24;9.60;93.20
16974;DHT22;8603;46.944;7.412;2024-03-23T16:26:04;9.50;92.80
16974;DHT22;8603;46.944;7.412;2024-03-23T16:28:35;9.50;93.80
16974;DHT22;8603;46.944;7.412;2024-03-23T16:31:21;9.40;92.70
16974;DHT22;8603;46.944;7.412;2024-03-23T16:34:21;9.40;93.40
16974;DHT22;8603;46.944;7.412;2024-03-23T16:40:52;9.40;92.10
16974;DHT22;8603;46.944;7.412;2024-03-23T16:50:20;9.40;92.70
16974;DHT22;8603;46.944;7.412;2024-03-23T16:52:55;9.40;93.10
16974;DHT22;8603;46.944;7.412;2024-03-23T16:55:21;9.30;93.40
16974;DHT22;8603;46.944;7.412;2024-03-23T16:57:49;9.30;94.00
16974;DHT22;8603;46.944;7.412;2024-03-23T17:00:23;9.20;94.80
16974;DHT22;8603;46.944;7.412;2024-03-23T17:02:52;9.10;94.60
16974;DHT22;8603;46.944;7.412;2024-03-23T17:07:56;9.00;95.40
16974;DHT22;8603;46.944;7.412;2024-03-23T17:10:51;8.90;96.20
16974;DHT22;8603;46.944;7.412;2024-03-23T17:13:28;8.80;97.80
16974;DHT22;8603;46.944;7.412;2024-03-23T17:16:25;8.80;98.80
16974;DHT22;8603;46.944;7.412;2024-03-23T17:19:04;8.60;99.40
16974;DHT22;8603;46.944;7.412;2024-03-23T17:21:49;8.40;99.80
16974;DHT22;8603;46.944;7.412;2024-03-23T17:25:22;8.30;99.80
16974;DHT22;8603;46.944;7.412;2024-03-23T17:27:57;8.00;99.70
16974;DHT22;8603;46.944;7.412;2024-03-23T17:30:58;8.00;99.90
16974;DHT22;8603;46.944;7.412;2024-03-23T17:33:42;7.90;99.90
16974;DHT22;8603;46.944;7.412;2024-03-23T17:36:17;7.80;99.90
16974;DHT22;8603;46.944;7.412;2024-03-23T17:38:48;7.70;99.90
16974;DHT22;8603;46.944;7.412;2024-03-23T17:41:29;7.70;99.90
16974;DHT22;8603;46.944;7.412;2024-03-23T17:44:11;7.70;99.90
16974;DHT22;8603;46.944;7.412;2024-03-23T17:46:40;7.60;99.90
16974;DHT22;8603;46.944;7.412;2024-03-23T17:49:21;7.50;99.90
16974;DHT22;8603;46.944;7.412;2024-03-23T17:55:32;7.40;99.90
16974;DHT22;8603;46.944;7.412;2024-03-23T17:58:20;7.30;99.90
16974;DHT22;8603;46.944;7.412;2024-03-23T18:00:46;7.20;99.90
16974;DHT22;8603;46.944;7.412;2024-03-23T18:03:12;7.10;99.90
16974;DHT22;8603;46.944;7.412;2024-03-23T18:05:43;7.00;99.90
16974;DHT22;8603;46.944;7.412;2024-03-23T18:08:09;7.00;99.90
16974;DHT22;8603;46.944;7.412;2024-03-23T18:14:18;6.90;99.90
16974;DHT22;8603;46.944;7.412;2024-03-23T18:16:53;6.80;99.90
16974;DHT22;8603;46.944;7.412;2024-03-23T18:19:19;6.80;99.90
16974;DHT22;8603;46.944;7.412;2024-03-23T18:21:50;6.90;99.90
16974;DHT22;8603;46.944;7.412;2024-03-23T18:24:19;6.80;99.90
16974;DHT22;8603;46.944;7.412;2024-03-23T18:26:57;6.60;99.90
16974;DHT22;8603;46.944;7.412;2024-03-23T18:29:25;6.80;99.90
16974;DHT22;8603;46.944;7.412;2024-03-23T18:31:59;6.70;99.90
16974;DHT22;8603;46.944;7.412;2024-03-23T18:34:27;6.50;99.90
16974;DHT22;8603;46.944;7.412;2024-03-23T18:37:34;6.40;99.90
16974;DHT22;8603;46.944;7.412;2024-03-23T18:40:12;6.20;99.90
16974;DHT22;8603;46.944;7.412;2024-03-23T18:42:43;6.00;99.90
16974;DHT22;8603;46.944;7.412;2024-03-23T19:09:03;5.40;99.90
16974;DHT22;8603;46.944;7.412;2024-03-23T19:15:38;5.40;99.90
16974;DHT22;8603;46.944;7.412;2024-03-23T19:25:30;5.40;99.90
16974;DHT22;8603;46.944;7.412;2024-03-23T19:28:27;5.30;99.90
16974;DHT22;8603;46.944;7.412;2024-03-23T19:30:56;5.30;99.90
16974;DHT22;8603;46.944;7.412;2024-03-23T19:33:25;5.30;99.90
16974;DHT22;8603;46.944;7.412;2024-03-23T19:35:57;5.30;99.90
16974;DHT22;8603;46.944;7.412;2024-03-23T19:38:36;5.40;99.90
16974;DHT22;8603;46.944;7.412;2024-03-23T19:41:34;5.40;99.90
16974;DHT22;8603;46.944;7.412;2024-03-23T19:44:07;5.40;99.90
16974;DHT22;8603;46.944;7.412;2024-03-23T19:46:36;5.50;99.90
16974;DHT22;8603;46.944;7.412;2024-03-23T19:49:03;5.40;99.90
16974;DHT22;8603;46.944;7.412;2024-03-23T19:54:16;5.40;99.90
16974;DHT22;8603;46.944;7.412;2024-03-23T19:56:49;5.40;99.90
16974;DHT22;8603;46.944;7.412;2024-03-23T20:03:07;5.50;99.90
16974;DHT22;8603;46.944;7.412;2024-03-23T20:05:38;5.50;99.90
16974;DHT22;8603;46.944;7.412;2024-03-23T20:11:36;5.50;99.90
16974;DHT22;8603;46.944;7.412;2024-03-23T20:14:10;5.50;99.90
16974;DHT22;8603;46.944;7.412;2024-03-23T20:17:06;5.50;99.90
16974;DHT22;8603;46.944;7.412;2024-03-23T20:19:46;5.60;99.90
16974;DHT22;8603;46.944;7.412;2024-03-23T20:22:36;5.40;99.90
16974;DHT22;8603;46.944;7.412;2024-03-23T20:25:37;5.50;99.90
16974;DHT22;8603;46.944;7.412;2024-03-23T20:28:44;5.70;99.90
16974;DHT22;8603;46.944;7.412;2024-03-23T20:31:28;5.80;99.90
16974;DHT22;8603;46.944;7.412;2024-03-23T20:34:15;5.80;99.90
16974;DHT22;8603;46.944;7.412;2024-03-23T20:36:45;5.90;99.90
16974;DHT22;8603;46.944;7.412;2024-03-23T20:39:14;5.90;99.90
16974;DHT22;8603;46.944;7.412;2024-03-23T20:41:53;6.00;99.90
16974;DHT22;8603;46.944;7.412;2024-03-23T20:44:38;6.10;99.90
16974;DHT22;8603;46.944;7.412;2024-03-23T20:47:20;5.90;99.90
16974;DHT22;8603;46.944;7.412;2024-03-23T20:50:05;5.90;99.90
16974;DHT22;8603;46.944;7.412;2024-03-23T20:56:18;5.70;99.90
16974;DHT22;8603;46.944;7.412;2024-03-23T20:59:30;5.60;99.90
16974;DHT22;8603;46.944;7.412;2024-03-23T21:03:04;5.50;99.90
16974;DHT22;8603;46.944;7.412;2024-03-23T21:06:13;5.40;99.90
16974;DHT22;8603;46.944;7.412;2024-03-23T21:09:05;5.60;99.90
16974;DHT22;8603;46.944;7.412;2024-03-23T21:16:37;5.70;99.90
16974;DHT22;8603;46.944;7.412;2024-03-23T21:19:06;5.70;99.90
16974;DHT22;8603;46.944;7.412;2024-03-23T21:21:48;5.80;99.90
16974;DHT22;8603;46.944;7.412;2024-03-23T21:24:20;5.50;99.90
16974;DHT22;8603;46.944;7.412;2024-03-23T21:27:11;5.60;99.90
16974;DHT22;8603;46.944;7.412;2024-03-23T21:47:49;5.40;99.90
16974;DHT22;8603;46.944;7.412;2024-03-23T21:50:53;5.40;99.90
16974;DHT22;8603;46.944;7.412;2024-03-23T21:57:10;5.50;99.90
16974;DHT22;8603;46.944;7.412;2024-03-23T22:02:56;5.70;99.90
16974;DHT22;8603;46.944;7.412;2024-03-23T22:06:07;5.70;99.90
16974;DHT22;8603;46.944;7.412;2024-03-23T22:09:03;5.60;99.90
16974;DHT22;8603;46.944;7.412;2024-03-23T22:11:45;5.70;99.90
16974;DHT22;8603;46.944;7.412;2024-03-23T22:14:30;5.70;99.90
16974;DHT22;8603;46.944;7.412;2024-03-23T22:17:12;5.70;99.90
16974;DHT22;8603;46.944;7.412;2024-03-23T22:20:31;5.60;99.90
16974;DHT22;8603;46.944;7.412;2024-03-23T22:23:02;5.80;99.90
16974;DHT22;8603;46.944;7.412;2024-03-23T22:25:34;5.80;99.90
16974;DHT22;8603;46.944;7.412;2024-03-23T22:28:12;5.80;99.90
16974;DHT22;8603;46.944;7.412;2024-03-23T22:30:59;5.70;99.90
16974;DHT22;8603;46.944;7.412;2024-03-23T22:33:26;5.80;99.90
16974;DHT22;8603;46.944;7.412;2024-03-23T22:36:16;5.80;99.90
16974;DHT22;8603;46.944;7.412;2024-03-23T22:38:43;5.80;99.90
16974;DHT22;8603;46.944;7.412;2024-03-23T22:41:12;5.90;99.90
16974;DHT22;8603;46.944;7.412;2024-03-23T22:43:52;5.90;99.90
16974;DHT22;8603;46.944;7.412;2024-03-23T22:46:30;5.90;99.90
16974;DHT22;8603;46.944;7.412;2024-03-23T22:49:05;5.90;99.90
16974;DHT22;8603;46.944;7.412;2024-03-23T22:51:44;6.00;99.90
16974;DHT22;8603;46.944;7.412;2024-03-23T22:57:12;6.10;99.90
16974;DHT22;8603;46.944;7.412;2024-03-23T23:00:05;6.20;99.90
16974;DHT22;8603;46.944;7.412;2024-03-23T23:03:00;6.20;99.90
16974;DHT22;8603;46.944;7.412;2024-03-23T23:05:32;6.20;99.90
16974;DHT22;8603;46.944;7.412;2024-03-23T23:08:19;6.20;99.90
16974;DHT22;8603;46.944;7.412;2024-03-23T23:11:09;6.20;99.90
16974;DHT22;8603;46.944;7.412;2024-03-23T23:13:40;6.20;99.90
16974;DHT22;8603;46.944;7.412;2024-03-23T23:16:18;6.20;99.90
16974;DHT22;8603;46.944;7.412;2024-03-23T23:18:55;6.20;99.90
16974;DHT22;8603;46.944;7.412;2024-03-23T23:21:31;6.30;99.90
16974;DHT22;8603;46.944;7.412;2024-03-23T23:23:59;6.50;99.90
16974;DHT22;8603;46.944;7.412;2024-03-23T23:26:28;6.40;99.90
16974;DHT22;8603;46.944;7.412;2024-03-23T23:29:06;6.30;99.90
16974;DHT22;8603;46.944;7.412;2024-03-23T23:31:32;6.30;99.90
16974;DHT22;8603;46.944;7.412;2024-03-23T23:33:58;6.30;99.90
16974;DHT22;8603;46.944;7.412;2024-03-23T23:36:37;6.20;99.90
16974;DHT22;8603;46.944;7.412;2024-03-23T23:39:34;6.30;99.90
16974;DHT22;8603;46.944;7.412;2024-03-23T23:42:32;6.30;99.90
16974;DHT22;8603;46.944;7.412;2024-03-23T23:48:47;6.30;99.90
16974;DHT22;8603;46.944;7.412;2024-03-23T23:51:13;6.30;99.90
16974;DHT22;8603;46.944;7.412;2024-03-23T23:53:49;6.30;99.90
16974;DHT22;8603;46.944;7.412;2024-03-23T23:56:17;6.30;99.90
16974;DHT22;8603;46.944;7.412;2024-03-23T23:58:58;6.30;99.90
